sensor_id;sensor_type;location;lat;lon;timestamp;P1;durP1;ratioP1;P2;durP2;ratioP2
52926;SDS011;40783;49.710;8.842;2023-02-05T00:02:06;21.20;;;8.27;;
52926;SDS011;40783;49.710;8.842;2023-02-05T00:04:36;10.57;;;6.10;;
52926;SDS011;40783;49.710;8.842;2023-02-05T00:07:02;11.17;;;4.30;;
52926;SDS011;40783;49.710;8.842;2023-02-05T00:09:30;8.90;;;5.32;;
52926;SDS011;40783;49.710;8.842;2023-02-05T00:11:56;8.77;;;5.47;;
52926;SDS011;40783;49.710;8.842;2023-02-05T00:14:22;8.73;;;5.07;;
52926;SDS011;40783;49.710;8.842;2023-02-05T00:16:49;11.38;;;6.03;;
52926;SDS011;40783;49.710;8.842;2023-02-05T00:19:17;12.90;;;6.53;;
52926;SDS011;40783;49.710;8.842;2023-02-05T00:21:45;11.18;;;5.43;;
52926;SDS011;40783;49.710;8.842;2023-02-05T00:24:11;13.70;;;6.33;;
52926;SDS011;40783;49.710;8.842;2023-02-05T00:26:36;9.43;;;5.53;;
52926;SDS011;40783;49.710;8.842;2023-02-05T00:29:02;10.57;;;6.25;;
52926;SDS011;40783;49.710;8.842;2023-02-05T00:31:30;10.18;;;5.82;;
52926;SDS011;40783;49.710;8.842;2023-02-05T00:33:58;11.57;;;5.47;;
52926;SDS011;40783;49.710;8.842;2023-02-05T00:36:25;10.65;;;5.95;;
52926;SDS011;40783;49.710;8.842;2023-02-05T00:38:51;11.13;;;5.43;;
52926;SDS011;40783;49.710;8.842;2023-02-05T00:41:22;18.85;;;6.53;;
52926;SDS011;40783;49.710;8.842;2023-02-05T00:43:47;17.40;;;5.67;;
52926;SDS011;40783;49.710;8.842;2023-02-05T00:46:13;12.23;;;6.87;;
52926;SDS011;40783;49.710;8.842;2023-02-05T00:48:41;8.43;;;5.88;;
52926;SDS011;40783;49.710;8.842;2023-02-05T00:51:06;15.50;;;5.75;;
52926;SDS011;40783;49.710;8.842;2023-02-05T00:53:32;17.30;;;7.38;;
52926;SDS011;40783;49.710;8.842;2023-02-05T00:55:58;16.70;;;7.67;;
52926;SDS011;40783;49.710;8.842;2023-02-05T00:58:28;11.15;;;7.63;;
52926;SDS011;40783;49.710;8.842;2023-02-05T01:00:58;10.48;;;6.43;;
52926;SDS011;40783;49.710;8.842;2023-02-05T01:03:23;12.35;;;5.78;;
52926;SDS011;40783;49.710;8.842;2023-02-05T01:05:49;7.10;;;4.53;;
52926;SDS011;40783;49.710;8.842;2023-02-05T01:08:16;9.60;;;5.80;;
52926;SDS011;40783;49.710;8.842;2023-02-05T01:10:43;12.40;;;6.77;;
52926;SDS011;40783;49.710;8.842;2023-02-05T01:13:10;12.70;;;6.28;;
52926;SDS011;40783;49.710;8.842;2023-02-05T01:15:35;10.53;;;5.93;;
52926;SDS011;40783;49.710;8.842;2023-02-05T01:18:06;8.43;;;5.38;;
52926;SDS011;40783;49.710;8.842;2023-02-05T01:20:31;8.20;;;4.85;;
52926;SDS011;40783;49.710;8.842;2023-02-05T01:23:02;7.82;;;3.78;;
52926;SDS011;40783;49.710;8.842;2023-02-05T01:25:27;8.23;;;4.77;;
52926;SDS011;40783;49.710;8.842;2023-02-05T01:27:54;8.53;;;4.47;;
52926;SDS011;40783;49.710;8.842;2023-02-05T01:30:20;8.48;;;4.85;;
52926;SDS011;40783;49.710;8.842;2023-02-05T01:32:45;9.10;;;4.33;;
52926;SDS011;40783;49.710;8.842;2023-02-05T01:35:10;10.93;;;5.03;;
52926;SDS011;40783;49.710;8.842;2023-02-05T01:37:36;8.43;;;4.00;;
52926;SDS011;40783;49.710;8.842;2023-02-05T01:40:01;8.33;;;4.00;;
52926;SDS011;40783;49.710;8.842;2023-02-05T01:42:28;11.38;;;4.55;;
52926;SDS011;40783;49.710;8.842;2023-02-05T01:50:16;8.93;;;3.67;;
52926;SDS011;40783;49.710;8.842;2023-02-05T01:52:47;6.07;;;3.78;;
52926;SDS011;40783;49.710;8.842;2023-02-05T01:55:16;8.05;;;4.53;;
52926;SDS011;40783;49.710;8.842;2023-02-05T01:57:41;6.83;;;3.83;;
52926;SDS011;40783;49.710;8.842;2023-02-05T02:00:07;7.07;;;3.53;;
52926;SDS011;40783;49.710;8.842;2023-02-05T02:02:34;8.82;;;4.35;;
52926;SDS011;40783;49.710;8.842;2023-02-05T02:05:08;8.18;;;4.60;;
52926;SDS011;40783;49.710;8.842;2023-02-05T02:07:36;13.60;;;4.75;;
52926;SDS011;40783;49.710;8.842;2023-02-05T02:10:02;7.90;;;4.17;;
52926;SDS011;40783;49.710;8.842;2023-02-05T02:14:58;8.23;;;4.38;;
52926;SDS011;40783;49.710;8.842;2023-02-05T02:17:27;11.93;;;5.75;;
52926;SDS011;40783;49.710;8.842;2023-02-05T02:27:43;10.52;;;3.85;;
52926;SDS011;40783;49.710;8.842;2023-02-05T02:31:07;7.20;;;4.32;;
52926;SDS011;40783;49.710;8.842;2023-02-05T02:35:59;8.15;;;4.40;;
52926;SDS011;40783;49.710;8.842;2023-02-05T02:38:45;7.90;;;3.85;;
52926;SDS011;40783;49.710;8.842;2023-02-05T02:41:26;5.13;;;3.22;;
52926;SDS011;40783;49.710;8.842;2023-02-05T02:43:58;7.15;;;3.78;;
52926;SDS011;40783;49.710;8.842;2023-02-05T02:46:39;4.93;;;2.92;;
52926;SDS011;40783;49.710;8.842;2023-02-05T02:49:06;7.90;;;3.47;;
52926;SDS011;40783;49.710;8.842;2023-02-05T02:51:37;6.50;;;3.63;;
52926;SDS011;40783;49.710;8.842;2023-02-05T02:54:07;7.68;;;3.50;;
52926;SDS011;40783;49.710;8.842;2023-02-05T02:56:38;7.38;;;2.65;;
52926;SDS011;40783;49.710;8.842;2023-02-05T02:59:07;5.55;;;2.90;;
52926;SDS011;40783;49.710;8.842;2023-02-05T03:01:43;6.70;;;3.67;;
52926;SDS011;40783;49.710;8.842;2023-02-05T03:04:14;6.93;;;3.20;;
52926;SDS011;40783;49.710;8.842;2023-02-05T03:06:47;5.68;;;3.05;;
52926;SDS011;40783;49.710;8.842;2023-02-05T03:09:29;6.90;;;2.40;;
52926;SDS011;40783;49.710;8.842;2023-02-05T03:11:59;5.40;;;2.42;;
52926;SDS011;40783;49.710;8.842;2023-02-05T03:14:25;4.43;;;2.20;;
52926;SDS011;40783;49.710;8.842;2023-02-05T03:16:52;4.77;;;2.93;;
52926;SDS011;40783;49.710;8.842;2023-02-05T03:19:18;4.10;;;1.92;;
52926;SDS011;40783;49.710;8.842;2023-02-05T03:21:48;6.73;;;2.30;;
52926;SDS011;40783;49.710;8.842;2023-02-05T03:24:20;5.63;;;2.00;;
52926;SDS011;40783;49.710;8.842;2023-02-05T03:26:45;4.07;;;2.03;;
52926;SDS011;40783;49.710;8.842;2023-02-05T03:29:13;4.68;;;2.20;;
52926;SDS011;40783;49.710;8.842;2023-02-05T03:45:29;10.38;;;6.25;;
52926;SDS011;40783;49.710;8.842;2023-02-05T03:48:11;10.32;;;5.20;;
52926;SDS011;40783;49.710;8.842;2023-02-05T03:50:54;6.63;;;4.32;;
52926;SDS011;40783;49.710;8.842;2023-02-05T03:59:26;9.55;;;2.95;;
52926;SDS011;40783;49.710;8.842;2023-02-05T04:01:55;4.43;;;2.60;;
52926;SDS011;40783;49.710;8.842;2023-02-05T04:04:21;5.57;;;3.20;;
52926;SDS011;40783;49.710;8.842;2023-02-05T04:06:47;6.30;;;2.87;;
52926;SDS011;40783;49.710;8.842;2023-02-05T04:09:14;4.95;;;2.90;;
52926;SDS011;40783;49.710;8.842;2023-02-05T04:11:40;4.07;;;2.23;;
52926;SDS011;40783;49.710;8.842;2023-02-05T04:14:05;6.47;;;3.90;;
52926;SDS011;40783;49.710;8.842;2023-02-05T04:16:30;7.50;;;2.57;;
52926;SDS011;40783;49.710;8.842;2023-02-05T04:18:55;9.37;;;2.37;;
52926;SDS011;40783;49.710;8.842;2023-02-05T04:21:23;3.30;;;2.00;;
52926;SDS011;40783;49.710;8.842;2023-02-05T04:23:48;4.77;;;2.70;;
52926;SDS011;40783;49.710;8.842;2023-02-05T04:26:13;10.93;;;3.27;;
52926;SDS011;40783;49.710;8.842;2023-02-05T04:28:39;8.13;;;2.23;;
52926;SDS011;40783;49.710;8.842;2023-02-05T04:31:08;9.47;;;2.87;;
52926;SDS011;40783;49.710;8.842;2023-02-05T04:33:34;6.15;;;2.95;;
52926;SDS011;40783;49.710;8.842;2023-02-05T04:35:59;6.60;;;3.07;;
52926;SDS011;40783;49.710;8.842;2023-02-05T04:38:25;7.10;;;2.93;;
52926;SDS011;40783;49.710;8.842;2023-02-05T04:40:51;8.52;;;2.25;;
52926;SDS011;40783;49.710;8.842;2023-02-05T04:43:16;7.73;;;4.13;;
52926;SDS011;40783;49.710;8.842;2023-02-05T04:45:46;4.28;;;2.50;;
52926;SDS011;40783;49.710;8.842;2023-02-05T04:48:12;4.40;;;2.33;;
52926;SDS011;40783;49.710;8.842;2023-02-05T04:50:40;6.57;;;2.97;;
52926;SDS011;40783;49.710;8.842;2023-02-05T04:53:07;5.63;;;2.17;;
52926;SDS011;40783;49.710;8.842;2023-02-05T04:55:35;6.67;;;3.20;;
52926;SDS011;40783;49.710;8.842;2023-02-05T04:58:00;5.38;;;2.38;;
52926;SDS011;40783;49.710;8.842;2023-02-05T05:00:26;5.93;;;2.80;;
52926;SDS011;40783;49.710;8.842;2023-02-05T05:02:51;5.80;;;2.27;;
52926;SDS011;40783;49.710;8.842;2023-02-05T05:05:17;7.40;;;3.10;;
52926;SDS011;40783;49.710;8.842;2023-02-05T05:07:42;5.67;;;2.57;;
52926;SDS011;40783;49.710;8.842;2023-02-05T05:10:08;3.57;;;2.03;;
52926;SDS011;40783;49.710;8.842;2023-02-05T05:12:36;3.85;;;2.30;;
52926;SDS011;40783;49.710;8.842;2023-02-05T05:15:03;4.47;;;2.72;;
52926;SDS011;40783;49.710;8.842;2023-02-05T05:17:32;5.05;;;2.20;;
52926;SDS011;40783;49.710;8.842;2023-02-05T05:20:00;5.93;;;3.65;;
52926;SDS011;40783;49.710;8.842;2023-02-05T05:22:26;3.73;;;2.23;;
52926;SDS011;40783;49.710;8.842;2023-02-05T05:24:51;6.53;;;3.57;;
52926;SDS011;40783;49.710;8.842;2023-02-05T05:27:19;5.38;;;3.28;;
52926;SDS011;40783;49.710;8.842;2023-02-05T05:29:47;7.05;;;3.25;;
52926;SDS011;40783;49.710;8.842;2023-02-05T05:32:12;5.47;;;2.57;;
52926;SDS011;40783;49.710;8.842;2023-02-05T05:34:38;6.07;;;2.83;;
52926;SDS011;40783;49.710;8.842;2023-02-05T05:37:03;4.37;;;2.37;;
52926;SDS011;40783;49.710;8.842;2023-02-05T05:39:33;6.28;;;3.30;;
52926;SDS011;40783;49.710;8.842;2023-02-05T05:42:20;6.72;;;3.60;;
52926;SDS011;40783;49.710;8.842;2023-02-05T05:45:04;4.00;;;2.42;;
52926;SDS011;40783;49.710;8.842;2023-02-05T05:47:29;10.43;;;3.97;;
52926;SDS011;40783;49.710;8.842;2023-02-05T05:49:55;8.07;;;3.23;;
52926;SDS011;40783;49.710;8.842;2023-02-05T05:52:20;12.70;;;4.13;;
52926;SDS011;40783;49.710;8.842;2023-02-05T05:54:45;6.97;;;3.63;;
52926;SDS011;40783;49.710;8.842;2023-02-05T05:57:11;7.93;;;3.50;;
52926;SDS011;40783;49.710;8.842;2023-02-05T05:59:36;11.43;;;3.33;;
52926;SDS011;40783;49.710;8.842;2023-02-05T06:02:01;10.80;;;4.20;;
52926;SDS011;40783;49.710;8.842;2023-02-05T06:04:29;7.53;;;3.00;;
52926;SDS011;40783;49.710;8.842;2023-02-05T06:06:54;5.33;;;2.87;;
52926;SDS011;40783;49.710;8.842;2023-02-05T06:09:23;7.32;;;3.85;;
52926;SDS011;40783;49.710;8.842;2023-02-05T06:11:50;12.07;;;4.38;;
52926;SDS011;40783;49.710;8.842;2023-02-05T06:14:21;6.47;;;3.42;;
52926;SDS011;40783;49.710;8.842;2023-02-05T06:16:48;8.73;;;4.05;;
52926;SDS011;40783;49.710;8.842;2023-02-05T06:19:16;10.77;;;5.77;;
52926;SDS011;40783;49.710;8.842;2023-02-05T06:21:42;9.85;;;3.83;;
52926;SDS011;40783;49.710;8.842;2023-02-05T06:24:07;8.33;;;4.83;;
52926;SDS011;40783;49.710;8.842;2023-02-05T06:26:32;8.63;;;4.13;;
52926;SDS011;40783;49.710;8.842;2023-02-05T06:29:00;12.27;;;4.82;;
52926;SDS011;40783;49.710;8.842;2023-02-05T06:31:29;7.88;;;3.60;;
52926;SDS011;40783;49.710;8.842;2023-02-05T06:33:54;6.22;;;2.72;;
52926;SDS011;40783;49.710;8.842;2023-02-05T06:36:20;9.67;;;4.33;;
52926;SDS011;40783;49.710;8.842;2023-02-05T06:38:45;5.07;;;3.13;;
52926;SDS011;40783;49.710;8.842;2023-02-05T06:41:13;6.30;;;3.55;;
52926;SDS011;40783;49.710;8.842;2023-02-05T06:43:38;9.53;;;4.77;;
52926;SDS011;40783;49.710;8.842;2023-02-05T06:46:03;24.17;;;5.30;;
52926;SDS011;40783;49.710;8.842;2023-02-05T06:48:28;5.00;;;2.83;;
52926;SDS011;40783;49.710;8.842;2023-02-05T06:50:54;5.20;;;2.87;;
52926;SDS011;40783;49.710;8.842;2023-02-05T06:53:22;7.43;;;3.78;;
52926;SDS011;40783;49.710;8.842;2023-02-05T06:55:47;7.83;;;4.07;;
52926;SDS011;40783;49.710;8.842;2023-02-05T06:58:15;5.80;;;3.15;;
52926;SDS011;40783;49.710;8.842;2023-02-05T07:00:40;8.77;;;4.63;;
52926;SDS011;40783;49.710;8.842;2023-02-05T07:03:08;11.20;;;5.53;;
52926;SDS011;40783;49.710;8.842;2023-02-05T07:05:33;7.93;;;4.57;;
52926;SDS011;40783;49.710;8.842;2023-02-05T07:07:58;13.40;;;4.77;;
52926;SDS011;40783;49.710;8.842;2023-02-05T07:10:24;9.40;;;5.23;;
52926;SDS011;40783;49.710;8.842;2023-02-05T07:12:49;6.53;;;2.93;;
52926;SDS011;40783;49.710;8.842;2023-02-05T07:15:16;6.82;;;3.97;;
52926;SDS011;40783;49.710;8.842;2023-02-05T07:17:42;6.07;;;3.00;;
52926;SDS011;40783;49.710;8.842;2023-02-05T07:20:08;14.03;;;3.67;;
52926;SDS011;40783;49.710;8.842;2023-02-05T07:22:36;7.53;;;3.65;;
52926;SDS011;40783;49.710;8.842;2023-02-05T07:25:01;8.20;;;4.57;;
52926;SDS011;40783;49.710;8.842;2023-02-05T07:27:26;9.37;;;5.03;;
52926;SDS011;40783;49.710;8.842;2023-02-05T07:29:51;14.30;;;5.10;;
52926;SDS011;40783;49.710;8.842;2023-02-05T07:32:19;7.47;;;5.20;;
52926;SDS011;40783;49.710;8.842;2023-02-05T07:34:49;14.00;;;5.13;;
52926;SDS011;40783;49.710;8.842;2023-02-05T07:37:15;12.60;;;6.13;;
52926;SDS011;40783;49.710;8.842;2023-02-05T07:39:45;8.57;;;5.30;;
52926;SDS011;40783;49.710;8.842;2023-02-05T07:42:10;12.88;;;6.85;;
52926;SDS011;40783;49.710;8.842;2023-02-05T07:44:38;15.65;;;8.80;;
52926;SDS011;40783;49.710;8.842;2023-02-05T07:47:03;13.57;;;9.50;;
52926;SDS011;40783;49.710;8.842;2023-02-05T07:49:31;16.53;;;4.93;;
52926;SDS011;40783;49.710;8.842;2023-02-05T07:51:56;8.90;;;4.97;;
52926;SDS011;40783;49.710;8.842;2023-02-05T07:54:21;9.27;;;4.73;;
52926;SDS011;40783;49.710;8.842;2023-02-05T07:56:47;11.03;;;4.60;;
52926;SDS011;40783;49.710;8.842;2023-02-05T07:59:12;9.90;;;4.70;;
52926;SDS011;40783;49.710;8.842;2023-02-05T08:01:39;19.63;;;6.07;;
52926;SDS011;40783;49.710;8.842;2023-02-05T08:04:05;11.03;;;5.27;;
52926;SDS011;40783;49.710;8.842;2023-02-05T08:06:30;6.80;;;4.23;;
52926;SDS011;40783;49.710;8.842;2023-02-05T08:09:00;12.63;;;5.47;;
52926;SDS011;40783;49.710;8.842;2023-02-05T08:11:28;13.40;;;5.63;;
52926;SDS011;40783;49.710;8.842;2023-02-05T08:13:55;20.42;;;6.28;;
52926;SDS011;40783;49.710;8.842;2023-02-05T08:16:23;9.57;;;5.18;;
52926;SDS011;40783;49.710;8.842;2023-02-05T08:18:49;14.48;;;6.45;;
52926;SDS011;40783;49.710;8.842;2023-02-05T08:21:15;11.43;;;6.95;;
52926;SDS011;40783;49.710;8.842;2023-02-05T08:26:07;7.50;;;4.88;;
52926;SDS011;40783;49.710;8.842;2023-02-05T08:28:32;10.90;;;6.53;;
52926;SDS011;40783;49.710;8.842;2023-02-05T08:30:58;11.73;;;5.70;;
52926;SDS011;40783;49.710;8.842;2023-02-05T08:33:32;15.13;;;7.05;;
52926;SDS011;40783;49.710;8.842;2023-02-05T08:35:57;12.20;;;6.67;;
52926;SDS011;40783;49.710;8.842;2023-02-05T08:38:23;8.70;;;4.90;;
52926;SDS011;40783;49.710;8.842;2023-02-05T08:40:48;11.70;;;5.87;;
52926;SDS011;40783;49.710;8.842;2023-02-05T08:43:13;12.77;;;7.67;;
52926;SDS011;40783;49.710;8.842;2023-02-05T08:45:44;14.75;;;7.03;;
52926;SDS011;40783;49.710;8.842;2023-02-05T08:48:10;14.73;;;7.32;;
52926;SDS011;40783;49.710;8.842;2023-02-05T08:50:36;18.67;;;7.60;;
52926;SDS011;40783;49.710;8.842;2023-02-05T08:53:01;12.93;;;7.03;;
52926;SDS011;40783;49.710;8.842;2023-02-05T08:55:26;17.53;;;6.73;;
52926;SDS011;40783;49.710;8.842;2023-02-05T08:57:52;14.57;;;7.73;;
52926;SDS011;40783;49.710;8.842;2023-02-05T09:00:17;17.23;;;7.43;;
52926;SDS011;40783;49.710;8.842;2023-02-05T09:02:44;14.57;;;7.97;;
52926;SDS011;40783;49.710;8.842;2023-02-05T09:05:11;18.10;;;10.50;;
52926;SDS011;40783;49.710;8.842;2023-02-05T09:07:41;35.38;;;10.77;;
52926;SDS011;40783;49.710;8.842;2023-02-05T09:10:32;17.98;;;8.68;;
52926;SDS011;40783;49.710;8.842;2023-02-05T09:13:00;17.08;;;8.93;;
52926;SDS011;40783;49.710;8.842;2023-02-05T09:15:25;24.35;;;8.82;;
52926;SDS011;40783;49.710;8.842;2023-02-05T09:17:55;18.17;;;10.25;;
52926;SDS011;40783;49.710;8.842;2023-02-05T09:20:23;15.15;;;11.15;;
52926;SDS011;40783;49.710;8.842;2023-02-05T09:22:50;18.75;;;11.05;;
52926;SDS011;40783;49.710;8.842;2023-02-05T09:25:17;21.95;;;12.18;;
52926;SDS011;40783;49.710;8.842;2023-02-05T09:27:46;23.15;;;10.88;;
52926;SDS011;40783;49.710;8.842;2023-02-05T09:30:11;23.80;;;12.37;;
52926;SDS011;40783;49.710;8.842;2023-02-05T09:32:37;19.45;;;10.57;;
52926;SDS011;40783;49.710;8.842;2023-02-05T09:35:02;20.63;;;12.60;;
52926;SDS011;40783;49.710;8.842;2023-02-05T09:37:28;25.40;;;14.30;;
52926;SDS011;40783;49.710;8.842;2023-02-05T09:39:55;65.05;;;33.05;;
52926;SDS011;40783;49.710;8.842;2023-02-05T09:42:25;75.40;;;50.83;;
52926;SDS011;40783;49.710;8.842;2023-02-05T09:48:08;34.22;;;13.25;;
52926;SDS011;40783;49.710;8.842;2023-02-05T09:50:56;29.52;;;11.65;;
52926;SDS011;40783;49.710;8.842;2023-02-05T09:53:28;23.75;;;14.20;;
52926;SDS011;40783;49.710;8.842;2023-02-05T09:56:02;30.83;;;15.07;;
52926;SDS011;40783;49.710;8.842;2023-02-05T09:58:31;24.88;;;15.85;;
52926;SDS011;40783;49.710;8.842;2023-02-05T10:01:03;28.88;;;13.63;;
52926;SDS011;40783;49.710;8.842;2023-02-05T10:03:45;23.48;;;14.00;;
52926;SDS011;40783;49.710;8.842;2023-02-05T10:08:56;22.80;;;14.73;;
52926;SDS011;40783;49.710;8.842;2023-02-05T10:11:33;27.10;;;15.52;;
52926;SDS011;40783;49.710;8.842;2023-02-05T10:14:44;19.45;;;12.88;;
52926;SDS011;40783;49.710;8.842;2023-02-05T10:24:56;20.83;;;15.30;;
52926;SDS011;40783;49.710;8.842;2023-02-05T10:33:22;25.97;;;16.00;;
52926;SDS011;40783;49.710;8.842;2023-02-05T10:36:04;23.27;;;14.23;;
52926;SDS011;40783;49.710;8.842;2023-02-05T10:38:34;18.23;;;13.05;;
52926;SDS011;40783;49.710;8.842;2023-02-05T10:41:11;26.45;;;13.30;;
52926;SDS011;40783;49.710;8.842;2023-02-05T10:43:52;25.83;;;17.35;;
52926;SDS011;40783;49.710;8.842;2023-02-05T10:46:28;26.08;;;15.60;;
52926;SDS011;40783;49.710;8.842;2023-02-05T10:51:41;29.02;;;16.30;;
52926;SDS011;40783;49.710;8.842;2023-02-05T10:54:14;28.38;;;16.48;;
52926;SDS011;40783;49.710;8.842;2023-02-05T10:56:44;19.37;;;14.70;;
52926;SDS011;40783;49.710;8.842;2023-02-05T10:59:35;20.23;;;14.20;;
52926;SDS011;40783;49.710;8.842;2023-02-05T11:02:02;23.02;;;15.13;;
52926;SDS011;40783;49.710;8.842;2023-02-05T11:04:34;27.85;;;15.50;;
52926;SDS011;40783;49.710;8.842;2023-02-05T11:07:03;29.52;;;17.52;;
52926;SDS011;40783;49.710;8.842;2023-02-05T11:09:33;23.73;;;16.08;;
52926;SDS011;40783;49.710;8.842;2023-02-05T11:14:58;23.17;;;14.82;;
52926;SDS011;40783;49.710;8.842;2023-02-05T11:17:30;31.33;;;14.93;;
52926;SDS011;40783;49.710;8.842;2023-02-05T11:19:59;28.63;;;14.43;;
52926;SDS011;40783;49.710;8.842;2023-02-05T11:22:35;21.88;;;13.50;;
52926;SDS011;40783;49.710;8.842;2023-02-05T11:25:22;19.20;;;14.18;;
52926;SDS011;40783;49.710;8.842;2023-02-05T11:33:15;24.40;;;15.07;;
52926;SDS011;40783;49.710;8.842;2023-02-05T11:35:40;24.38;;;16.20;;
52926;SDS011;40783;49.710;8.842;2023-02-05T11:38:22;19.00;;;14.95;;
52926;SDS011;40783;49.710;8.842;2023-02-05T11:40:58;23.02;;;14.70;;
52926;SDS011;40783;49.710;8.842;2023-02-05T11:43:37;21.13;;;15.43;;
52926;SDS011;40783;49.710;8.842;2023-02-05T11:46:09;31.45;;;15.13;;
52926;SDS011;40783;49.710;8.842;2023-02-05T11:49:04;21.10;;;16.20;;
52926;SDS011;40783;49.710;8.842;2023-02-05T11:51:47;22.45;;;14.45;;
52926;SDS011;40783;49.710;8.842;2023-02-05T11:54:21;18.60;;;11.67;;
52926;SDS011;40783;49.710;8.842;2023-02-05T11:57:05;19.60;;;12.35;;
52926;SDS011;40783;49.710;8.842;2023-02-05T12:02:35;12.70;;;8.45;;
52926;SDS011;40783;49.710;8.842;2023-02-05T12:10:42;13.30;;;9.50;;
52926;SDS011;40783;49.710;8.842;2023-02-05T12:16:39;13.27;;;9.60;;
52926;SDS011;40783;49.710;8.842;2023-02-05T12:34:02;13.75;;;8.32;;
52926;SDS011;40783;49.710;8.842;2023-02-05T12:36:47;10.73;;;7.85;;
52926;SDS011;40783;49.710;8.842;2023-02-05T12:44:36;5.75;;;3.28;;
52926;SDS011;40783;49.710;8.842;2023-02-05T12:50:15;6.72;;;4.28;;
52926;SDS011;40783;49.710;8.842;2023-02-05T12:53:22;10.80;;;6.32;;
52926;SDS011;40783;49.710;8.842;2023-02-05T12:59:00;7.20;;;4.60;;
52926;SDS011;40783;49.710;8.842;2023-02-05T13:02:22;6.65;;;4.35;;
52926;SDS011;40783;49.710;8.842;2023-02-05T13:14:16;6.93;;;4.40;;
52926;SDS011;40783;49.710;8.842;2023-02-05T13:19:32;7.38;;;4.13;;
52926;SDS011;40783;49.710;8.842;2023-02-05T13:25:27;10.85;;;7.68;;
52926;SDS011;40783;49.710;8.842;2023-02-05T13:28:38;7.90;;;4.57;;
52926;SDS011;40783;49.710;8.842;2023-02-05T13:31:27;13.05;;;7.60;;
52926;SDS011;40783;49.710;8.842;2023-02-05T13:33:56;4.68;;;3.10;;
52926;SDS011;40783;49.710;8.842;2023-02-05T14:01:48;5.45;;;2.90;;
52926;SDS011;40783;49.710;8.842;2023-02-05T14:04:24;5.20;;;3.35;;
52926;SDS011;40783;49.710;8.842;2023-02-05T14:07:00;4.60;;;2.72;;
52926;SDS011;40783;49.710;8.842;2023-02-05T14:11:58;6.57;;;4.37;;
52926;SDS011;40783;49.710;8.842;2023-02-05T14:19:59;5.20;;;3.58;;
52926;SDS011;40783;49.710;8.842;2023-02-05T14:30:57;12.32;;;5.50;;
52926;SDS011;40783;49.710;8.842;2023-02-05T14:33:27;11.05;;;7.57;;
52926;SDS011;40783;49.710;8.842;2023-02-05T14:39:00;6.57;;;4.43;;
52926;SDS011;40783;49.710;8.842;2023-02-05T14:41:29;12.98;;;5.75;;
52926;SDS011;40783;49.710;8.842;2023-02-05T14:44:03;6.57;;;4.05;;
52926;SDS011;40783;49.710;8.842;2023-02-05T14:49:38;12.27;;;4.47;;
52926;SDS011;40783;49.710;8.842;2023-02-05T14:55:15;5.53;;;3.10;;
52926;SDS011;40783;49.710;8.842;2023-02-05T14:57:57;11.80;;;5.78;;
52926;SDS011;40783;49.710;8.842;2023-02-05T15:00:30;10.75;;;6.15;;
52926;SDS011;40783;49.710;8.842;2023-02-05T15:05:39;7.97;;;5.25;;
52926;SDS011;40783;49.710;8.842;2023-02-05T15:19:29;11.20;;;6.07;;
52926;SDS011;40783;49.710;8.842;2023-02-05T15:21:58;12.38;;;6.63;;
52926;SDS011;40783;49.710;8.842;2023-02-05T15:24:26;9.55;;;5.82;;
52926;SDS011;40783;49.710;8.842;2023-02-05T15:27:00;9.88;;;5.90;;
52926;SDS011;40783;49.710;8.842;2023-02-05T15:32:04;12.98;;;6.40;;
52926;SDS011;40783;49.710;8.842;2023-02-05T15:34:51;10.15;;;6.00;;
52926;SDS011;40783;49.710;8.842;2023-02-05T15:37:24;9.23;;;5.75;;
52926;SDS011;40783;49.710;8.842;2023-02-05T15:39:53;12.27;;;7.28;;
52926;SDS011;40783;49.710;8.842;2023-02-05T15:42:20;11.48;;;6.47;;
52926;SDS011;40783;49.710;8.842;2023-02-05T15:44:54;10.57;;;7.05;;
52926;SDS011;40783;49.710;8.842;2023-02-05T15:47:20;9.27;;;6.45;;
52926;SDS011;40783;49.710;8.842;2023-02-05T15:49:48;9.27;;;5.93;;
52926;SDS011;40783;49.710;8.842;2023-02-05T15:52:24;13.70;;;8.05;;
52926;SDS011;40783;49.710;8.842;2023-02-05T15:54:55;14.00;;;9.45;;
52926;SDS011;40783;49.710;8.842;2023-02-05T15:57:27;9.55;;;6.60;;
52926;SDS011;40783;49.710;8.842;2023-02-05T15:59:56;12.38;;;8.10;;
52926;SDS011;40783;49.710;8.842;2023-02-05T16:02:24;13.05;;;9.18;;
52926;SDS011;40783;49.710;8.842;2023-02-05T16:04:58;16.13;;;9.32;;
52926;SDS011;40783;49.710;8.842;2023-02-05T16:07:39;11.45;;;6.85;;
52926;SDS011;40783;49.710;8.842;2023-02-05T16:10:16;13.18;;;9.32;;
52926;SDS011;40783;49.710;8.842;2023-02-05T16:12:58;23.38;;;14.70;;
52926;SDS011;40783;49.710;8.842;2023-02-05T16:16:07;21.08;;;14.85;;
52926;SDS011;40783;49.710;8.842;2023-02-05T16:21:06;12.60;;;9.55;;
52926;SDS011;40783;49.710;8.842;2023-02-05T16:23:40;14.50;;;11.25;;
52926;SDS011;40783;49.710;8.842;2023-02-05T16:26:17;13.65;;;9.82;;
52926;SDS011;40783;49.710;8.842;2023-02-05T16:31:58;14.75;;;10.07;;
52926;SDS011;40783;49.710;8.842;2023-02-05T16:34:28;12.43;;;6.97;;
52926;SDS011;40783;49.710;8.842;2023-02-05T16:36:55;8.63;;;5.75;;
52926;SDS011;40783;49.710;8.842;2023-02-05T16:40:11;15.73;;;10.40;;
52926;SDS011;40783;49.710;8.842;2023-02-05T16:44:50;11.30;;;7.25;;
52926;SDS011;40783;49.710;8.842;2023-02-05T16:48:12;11.55;;;6.97;;
52926;SDS011;40783;49.710;8.842;2023-02-05T16:50:42;11.07;;;7.18;;
52926;SDS011;40783;49.710;8.842;2023-02-05T16:53:18;10.68;;;7.63;;
52926;SDS011;40783;49.710;8.842;2023-02-05T16:55:46;11.80;;;8.18;;
52926;SDS011;40783;49.710;8.842;2023-02-05T17:00:59;12.05;;;8.07;;
52926;SDS011;40783;49.710;8.842;2023-02-05T17:03:36;10.75;;;8.85;;
52926;SDS011;40783;49.710;8.842;2023-02-05T17:06:06;12.23;;;9.35;;
52926;SDS011;40783;49.710;8.842;2023-02-05T17:08:37;17.00;;;9.95;;
52926;SDS011;40783;49.710;8.842;2023-02-05T17:13:49;17.08;;;10.13;;
52926;SDS011;40783;49.710;8.842;2023-02-05T17:18:57;18.05;;;10.07;;
52926;SDS011;40783;49.710;8.842;2023-02-05T17:21:37;14.48;;;10.02;;
52926;SDS011;40783;49.710;8.842;2023-02-05T17:24:07;22.25;;;13.35;;
52926;SDS011;40783;49.710;8.842;2023-02-05T17:26:35;20.00;;;10.45;;
52926;SDS011;40783;49.710;8.842;2023-02-05T17:29:04;15.32;;;9.30;;
52926;SDS011;40783;49.710;8.842;2023-02-05T17:31:34;17.85;;;11.30;;
52926;SDS011;40783;49.710;8.842;2023-02-05T17:34:02;14.50;;;9.52;;
52926;SDS011;40783;49.710;8.842;2023-02-05T17:36:27;11.57;;;7.93;;
